Summer Point, Vermont
Current Conditions -  °F | °C
As of 5:55 PM on Thursday 23 Oct 2014 (Local Time) from K6B0 Reporting Station
Moderate Rain Moderate Rain  
Wind Chill: 39°   Ceiling: 400
Heat Index: 44°   Visibility: 7mi
Dew Point: 44°   Wind: 10mph
Humidity: 100%   Direction: 360°N
Pressure: 29.86"   Gusts: 17mph
Location:  44.0804°N, 73.3324°W
Report Text: K6B0 232155Z AUTO 36009G15KT 7SM RA OVC004 07/07 A2986 RMK AO2 P0003 T00670067
Loading
Personal Weather Stations






























Interactive Weather Map New forecast layout! Learn more

10-Day Weather Forecast

Advertisements
Track Severe Weather on mobile